createdAt,value
2023-11-07T00:01:45.761Z,100204.31
2023-11-07T00:04:13.589Z,100202.63
2023-11-07T00:06:41.711Z,100199.88
2023-11-07T00:09:08.836Z,100196.06
2023-11-07T00:11:35.985Z,100202.16
2023-11-07T00:14:03.306Z,100204.06
2023-11-07T00:16:31.538Z,100197.97
2023-11-07T00:18:58.332Z,100208.59
2023-11-07T00:21:25.171Z,100204.22
2023-11-07T00:23:51.672Z,100207.91
2023-11-07T00:26:19.780Z,100214.72
2023-11-07T00:28:46.314Z,100203.78
2023-11-07T00:31:14.187Z,100217.22
2023-11-07T00:33:40.777Z,100210.31
2023-11-07T00:36:07.916Z,100218.84
2023-11-07T00:38:34.950Z,100224.38
2023-11-07T00:41:01.579Z,100216.41
2023-11-07T00:43:28.109Z,100226.16
2023-11-07T00:45:54.623Z,100224.09
2023-11-07T00:48:21.283Z,100228.75
2023-11-07T00:50:47.924Z,100238.91
2023-11-07T00:53:14.466Z,100233.41
2023-11-07T00:55:41.019Z,100232.97
2023-11-07T00:58:07.479Z,100238.00
2023-11-07T01:00:36.848Z,100237.34
2023-11-07T01:03:03.795Z,100236.03
2023-11-07T01:05:30.737Z,100232.03
2023-11-07T01:07:57.370Z,100243.41
2023-11-07T01:10:23.857Z,100247.22
2023-11-07T01:12:53.996Z,100252.47
2023-11-07T01:15:20.782Z,100244.03
2023-11-07T01:17:47.541Z,100251.81
2023-11-07T01:20:14.227Z,100248.63
2023-11-07T01:22:40.686Z,100247.09
2023-11-07T01:25:07.500Z,100261.47
2023-11-07T01:27:34.037Z,100254.69
2023-11-07T01:30:00.966Z,100256.97
2023-11-07T01:32:29.423Z,100257.38
2023-11-07T01:34:56.214Z,100253.75
2023-11-07T01:37:22.731Z,100254.53
2023-11-07T01:39:49.174Z,100248.09
2023-11-07T01:42:15.718Z,100247.22
2023-11-07T01:44:50.765Z,100245.03
2023-11-07T01:47:19.953Z,100242.84
2023-11-07T01:49:47.755Z,100245.28
2023-11-07T01:52:17.753Z,100243.31
2023-11-07T01:54:45.989Z,100244.06
2023-11-07T01:57:15.775Z,100252.03
2023-11-07T01:59:42.729Z,100245.38
2023-11-07T02:02:18.953Z,100245.75
2023-11-07T02:04:48.742Z,100243.13
2023-11-07T02:07:16.578Z,100249.38
2023-11-07T02:09:44.070Z,100240.66
2023-11-07T02:12:10.695Z,100239.13
2023-11-07T02:14:38.177Z,100236.38
2023-11-07T02:17:05.161Z,100236.16
2023-11-07T02:19:33.116Z,100227.69
2023-11-07T02:22:01.160Z,100234.63
2023-11-07T02:24:29.044Z,100237.13
2023-11-07T02:26:56.961Z,100236.91
2023-11-07T02:29:23.653Z,100237.75
2023-11-07T02:31:51.604Z,100236.69
2023-11-07T02:34:19.041Z,100233.94
2023-11-07T02:36:45.576Z,100239.44
2023-11-07T02:39:13.920Z,100242.78
2023-11-07T02:41:41.030Z,100238.13
2023-11-07T02:44:07.539Z,100247.84
2023-11-07T02:46:34.009Z,100242.31
2023-11-07T02:49:00.573Z,100249.31
2023-11-07T02:51:27.631Z,100241.25
2023-11-07T02:53:54.522Z,100238.28
2023-11-07T02:56:28.818Z,100245.69
2023-11-07T02:58:56.338Z,100240.19
2023-11-07T03:01:23.066Z,100251.44
2023-11-07T03:03:55.763Z,100237.06
2023-11-07T03:06:22.639Z,100236.81
2023-11-07T03:08:49.260Z,100240.41
2023-11-07T03:11:15.755Z,100240.66
2023-11-07T03:13:42.218Z,100253.34
2023-11-07T03:16:09.322Z,100244.47
2023-11-07T03:18:36.119Z,100246.59
2023-11-07T03:21:04.933Z,100239.44
2023-11-07T03:23:31.541Z,100234.53
2023-11-07T03:25:58.138Z,100228.44
2023-11-07T03:28:24.604Z,100233.69
2023-11-07T03:30:51.148Z,100239.44
2023-11-07T03:33:18.746Z,100232.47
2023-11-07T03:35:47.790Z,100228.88
2023-11-07T03:38:14.788Z,100240.97
2023-11-07T03:40:41.296Z,100239.88
2023-11-07T03:43:08.987Z,100221.69
2023-11-07T03:45:36.054Z,100226.00
2023-11-07T03:48:02.818Z,100230.88
2023-11-07T03:50:31.156Z,100234.09
2023-11-07T03:52:58.347Z,100224.38
2023-11-07T03:55:24.855Z,100232.03
2023-11-07T03:57:51.486Z,100235.03
2023-11-07T04:00:20.765Z,100225.31
2023-11-07T04:02:47.664Z,100223.84
2023-11-07T04:05:14.352Z,100226.00
2023-11-07T04:07:41.265Z,100240.25
2023-11-07T04:10:08.871Z,100229.91
2023-11-07T04:12:35.448Z,100232.28
2023-11-07T04:15:06.530Z,100234.19
2023-11-07T04:17:35.094Z,100234.66
2023-11-07T04:20:02.470Z,100230.22
2023-11-07T04:22:29.349Z,100237.63
2023-11-07T04:24:56.105Z,100237.63
2023-11-07T04:27:23.618Z,100231.53
2023-11-07T04:29:50.116Z,100233.66
2023-11-07T04:32:16.620Z,100233.06
2023-11-07T04:34:45.128Z,100232.69
2023-11-07T04:37:12.019Z,100233.16
2023-11-07T04:39:39.133Z,100243.53
2023-11-07T04:42:06.762Z,100235.47
2023-11-07T04:44:33.285Z,100239.94
2023-11-07T04:47:03.049Z,100241.63
2023-11-07T04:49:33.591Z,100235.91
2023-11-07T04:52:02.529Z,100231.84
2023-11-07T04:54:29.735Z,100232.91
2023-11-07T04:56:59.170Z,100238.78
2023-11-07T04:59:25.752Z,100237.94
2023-11-07T05:01:54.071Z,100239.63
2023-11-07T05:04:21.043Z,100233.28
2023-11-07T05:06:48.137Z,100230.78
2023-11-07T05:09:15.247Z,100230.78
2023-11-07T05:11:42.218Z,100232.91
2023-11-07T05:14:09.323Z,100237.09
2023-11-07T05:16:39.885Z,100241.31
2023-11-07T05:19:09.918Z,100235.81
2023-11-07T05:21:37.376Z,100246.81
2023-11-07T05:24:07.682Z,100232.81
2023-11-07T05:26:34.335Z,100230.69
2023-11-07T05:29:01.516Z,100237.03
2023-11-07T05:31:28.034Z,100232.38
2023-11-07T05:33:54.781Z,100233.19
2023-11-07T05:36:21.491Z,100236.31
2023-11-07T05:38:48.734Z,100247.97
2023-11-07T05:41:15.415Z,100238.66
2023-11-07T05:43:41.918Z,100255.97
2023-11-07T05:46:09.298Z,100255.97
2023-11-07T05:48:37.564Z,100250.25
2023-11-07T05:51:04.790Z,100257.19
2023-11-07T05:53:31.432Z,100257.19
2023-11-07T05:55:57.980Z,100248.94
2023-11-07T05:58:24.499Z,100252.16
2023-11-07T06:00:51.460Z,100246.66
2023-11-07T06:03:18.245Z,100238.41
2023-11-07T06:05:46.095Z,100251.09
2023-11-07T06:08:13.566Z,100246.66
2023-11-07T06:10:40.144Z,100250.03
2023-11-07T06:13:06.651Z,100248.13
2023-11-07T06:15:33.756Z,100246.19
2023-11-07T06:18:00.893Z,100252.31
2023-11-07T06:20:27.440Z,100254.44
2023-11-07T06:22:54.048Z,100256.97
2023-11-07T06:25:21.772Z,100253.38
2023-11-07T06:27:52.325Z,100255.53
2023-11-07T06:30:21.697Z,100263.81
2023-11-07T06:32:50.955Z,100259.94
2023-11-07T06:35:17.624Z,100258.91
2023-11-07T06:37:44.227Z,100265.25
2023-11-07T06:40:19.380Z,100266.09
2023-11-07T06:42:47.328Z,100260.59
2023-11-07T06:45:15.044Z,100267.78
2023-11-07T06:47:47.192Z,100267.31
2023-11-07T06:50:15.652Z,100277.22
2023-11-07T06:52:44.139Z,100281.69
2023-11-07T06:55:13.624Z,100291.63
2023-11-07T06:57:41.044Z,100278.72
2023-11-07T07:00:09.905Z,100281.22
2023-11-07T07:02:37.374Z,100289.84
2023-11-07T07:05:05.134Z,100293.25
2023-11-07T07:07:32.371Z,100290.22
2023-11-07T07:09:59.324Z,100282.81
2023-11-07T07:12:26.057Z,100292.09
2023-11-07T07:14:53.134Z,100293.31
2023-11-07T07:17:20.485Z,100299.41
2023-11-07T07:19:47.264Z,100300.84
2023-11-07T07:22:13.804Z,100307.47
2023-11-07T07:24:41.135Z,100306.00
2023-11-07T07:27:12.952Z,100309.38
2023-11-07T07:29:39.627Z,100313.34
2023-11-07T07:32:06.421Z,100316.09
2023-11-07T07:34:33.531Z,100313.94
2023-11-07T07:37:00.104Z,100316.94
2023-11-07T07:39:31.142Z,100320.56
2023-11-07T07:41:59.426Z,100317.31
2023-11-07T07:44:28.887Z,100308.81
2023-11-07T07:46:55.810Z,100309.66
2023-11-07T07:49:24.475Z,100317.91
2023-11-07T07:51:55.169Z,100316.84
2023-11-07T07:56:55.936Z,100326.94
2023-11-07T07:59:25.800Z,100318.00
2023-11-07T08:01:54.178Z,100320.53
2023-11-07T08:04:25.058Z,100323.03
2023-11-07T08:06:51.759Z,100330.44
2023-11-07T08:09:24.482Z,100321.75
2023-11-07T08:11:54.963Z,100329.75
2023-11-07T08:14:21.642Z,100331.00
2023-11-07T08:16:48.147Z,100337.72
2023-11-07T08:19:14.866Z,100329.22
2023-11-07T08:21:42.033Z,100338.09
2023-11-07T08:24:09.341Z,100328.28
2023-11-07T08:26:36.972Z,100328.66
2023-11-07T08:29:07.303Z,100322.94
2023-11-07T08:31:37.512Z,100327.34
2023-11-07T08:34:12.005Z,100324.38
2023-11-07T08:36:42.098Z,100326.44
2023-11-07T08:39:24.798Z,100331.47
2023-11-07T08:41:51.933Z,100340.34
2023-11-07T08:44:20.250Z,100339.84
2023-11-07T08:46:46.921Z,100342.22
2023-11-07T08:49:14.514Z,100338.97
2023-11-07T08:51:41.018Z,100347.84
2023-11-07T08:54:07.591Z,100335.03
2023-11-07T08:56:34.039Z,100340.09
2023-11-07T08:59:00.508Z,100339.72
2023-11-07T09:01:26.960Z,100338.16
2023-11-07T09:03:53.552Z,100349.78
2023-11-07T09:06:21.136Z,100346.81
2023-11-07T09:08:47.737Z,100342.59
2023-11-07T09:11:14.263Z,100349.31
2023-11-07T09:13:40.773Z,100354.84
2023-11-07T09:16:10.080Z,100372.59
2023-11-07T09:18:39.274Z,100357.97
2023-11-07T09:21:06.084Z,100359.44
2023-11-07T09:23:33.477Z,100361.09
2023-11-07T09:25:59.934Z,100371.31
2023-11-07T09:28:26.461Z,100376.84
2023-11-07T09:30:52.961Z,100379.81
2023-11-07T09:33:20.629Z,100382.34
2023-11-07T09:35:47.233Z,100383.16
2023-11-07T09:38:14.421Z,100382.72
2023-11-07T09:40:45.369Z,100387.13
2023-11-07T09:43:13.422Z,100385.22
2023-11-07T09:45:41.160Z,100382.25
2023-11-07T09:48:11.377Z,100386.69
2023-11-07T09:50:42.777Z,100387.06
2023-11-07T09:53:14.328Z,100392.94
2023-11-07T09:55:41.218Z,100385.50
2023-11-07T09:58:15.847Z,100386.34
2023-11-07T10:00:45.528Z,100392.69
2023-11-07T10:03:13.199Z,100392.00
2023-11-07T10:05:40.994Z,100392.13
2023-11-07T10:08:07.790Z,100396.13
2023-11-07T10:10:35.500Z,100399.25
2023-11-07T10:13:10.127Z,100398.28
2023-11-07T10:15:37.249Z,100392.91
2023-11-07T10:18:10.429Z,100397.22
2023-11-07T10:20:51.961Z,100396.38
2023-11-07T10:23:19.389Z,100395.66
2023-11-07T10:25:51.410Z,100402.38
2023-11-07T10:28:22.452Z,100394.47
2023-11-07T10:30:50.270Z,100410.56
2023-11-07T10:33:30.984Z,100403.72
2023-11-07T10:36:00.643Z,100401.56
2023-11-07T10:38:30.010Z,100410.47
2023-11-07T10:40:56.896Z,100400.63
2023-11-07T10:43:36.392Z,100400.72
2023-11-07T10:46:08.141Z,100404.81
2023-11-07T10:48:41.366Z,100412.34
2023-11-07T10:51:11.312Z,100403.34
2023-11-07T10:53:39.562Z,100401.22
2023-11-07T10:56:21.396Z,100397.44
2023-11-07T10:58:53.388Z,100394.66
2023-11-07T11:01:23.226Z,100388.78
2023-11-07T11:03:51.842Z,100379.41
2023-11-07T11:06:24.324Z,100376.25
2023-11-07T11:08:56.314Z,100367.78
2023-11-07T11:11:26.488Z,100388.19
2023-11-07T11:13:54.219Z,100374.13
2023-11-07T11:16:22.588Z,100369.28
2023-11-07T11:19:25.530Z,100374.81
2023-11-07T11:22:28.176Z,100384.94
2023-11-07T11:25:15.337Z,100389.53
2023-11-07T11:27:47.583Z,100375.94
2023-11-07T11:30:14.223Z,100375.34
2023-11-07T11:32:45.120Z,100370.13
2023-11-07T11:35:17.751Z,100365.66
2023-11-07T11:38:22.342Z,100381.59
2023-11-07T11:41:00.635Z,100385.66
2023-11-07T11:43:28.892Z,100379.56
2023-11-07T11:45:59.804Z,100385.31
2023-11-07T11:48:51.974Z,100378.97
2023-11-07T11:51:38.316Z,100380.53
2023-11-07T11:54:08.778Z,100379.53
2023-11-07T11:57:00.092Z,100373.53
2023-11-07T11:59:31.303Z,100380.69
2023-11-07T12:02:04.990Z,100371.13
2023-11-07T12:04:37.038Z,100375.50
2023-11-07T12:07:16.143Z,100374.09
2023-11-07T12:09:57.239Z,100372.13
2023-11-07T12:12:23.812Z,100369.28
2023-11-07T12:14:56.256Z,100361.09
2023-11-07T12:17:24.072Z,100354.88
2023-11-07T12:20:09.692Z,100360.00
2023-11-07T12:22:37.451Z,100342.94
2023-11-07T12:25:13.087Z,100350.41
2023-11-07T12:27:39.578Z,100360.59
2023-11-07T12:30:17.851Z,100357.81
2023-11-07T12:32:46.269Z,100374.41
2023-11-07T12:35:20.529Z,100376.66
2023-11-07T12:37:48.286Z,100377.16
2023-11-07T12:40:16.904Z,100369.09
2023-11-07T12:42:52.541Z,100376.66
2023-11-07T12:45:22.669Z,100387.28
2023-11-07T12:48:00.059Z,100382.00
2023-11-07T12:50:37.234Z,100372.69
2023-11-07T12:53:06.702Z,100363.28
2023-11-07T12:55:36.689Z,100368.19
2023-11-07T12:58:04.916Z,100353.50
2023-11-07T13:00:52.131Z,100346.50
2023-11-07T13:03:24.897Z,100354.03
2023-11-07T13:06:19.739Z,100338.50
2023-11-07T13:08:46.609Z,100335.44
2023-11-07T13:11:21.775Z,100332.75
2023-11-07T13:13:50.634Z,100323.88
2023-11-07T13:16:18.647Z,100329.97
2023-11-07T13:18:50.737Z,100327.75
2023-11-07T13:21:21.209Z,100340.28
2023-11-07T13:23:48.345Z,100327.75
2023-11-07T13:26:18.331Z,100326.28
2023-11-07T13:28:45.407Z,100325.50
2023-11-07T13:31:14.255Z,100341.13
2023-11-07T13:33:46.046Z,100354.47
2023-11-07T13:36:15.325Z,100359.78
2023-11-07T13:38:49.132Z,100350.53
2023-11-07T13:41:17.173Z,100347.66
2023-11-07T13:43:44.924Z,100353.22
2023-11-07T13:46:11.686Z,100357.44
2023-11-07T13:48:38.717Z,100353.78
2023-11-07T13:51:08.242Z,100363.56
2023-11-07T13:53:37.193Z,100364.25
2023-11-07T13:56:04.465Z,100356.66
2023-11-07T13:58:31.288Z,100370.16
2023-11-07T14:00:58.055Z,100384.34
2023-11-07T14:03:24.904Z,100382.41
2023-11-07T14:05:51.715Z,100380.97
2023-11-07T14:08:18.414Z,100382.09
2023-11-07T14:10:45.665Z,100381.84
2023-11-07T14:13:12.311Z,100392.34
2023-11-07T14:15:38.857Z,100388.59
2023-11-07T14:18:16.237Z,100403.19
2023-11-07T14:20:51.046Z,100395.59
2023-11-07T14:23:17.714Z,100415.31
2023-11-07T14:25:45.158Z,100401.38
2023-11-07T14:28:12.596Z,100397.34
2023-11-07T14:30:46.040Z,100396.34
2023-11-07T14:33:14.208Z,100390.41
2023-11-07T14:35:41.089Z,100396.91
2023-11-07T14:38:08.833Z,100419.84
2023-11-07T14:40:36.697Z,100394.47
2023-11-07T14:43:13.887Z,100393.47
2023-11-07T14:45:43.993Z,100400.66
2023-11-07T14:48:10.864Z,100399.25
2023-11-07T14:50:39.482Z,100398.34
2023-11-07T14:53:07.098Z,100412.28
2023-11-07T14:55:37.125Z,100412.81
2023-11-07T14:58:07.999Z,100424.91
2023-11-07T15:00:41.254Z,100429.78
2023-11-07T15:03:11.166Z,100438.34
2023-11-07T15:05:40.219Z,100442.88
2023-11-07T15:08:07.082Z,100446.56
2023-11-07T15:10:34.092Z,100436.06
2023-11-07T15:13:02.215Z,100449.75
2023-11-07T15:15:31.603Z,100447.06
2023-11-07T15:17:58.963Z,100446.13
2023-11-07T15:20:32.013Z,100442.78
2023-11-07T15:22:59.801Z,100446.06
2023-11-07T15:25:31.666Z,100446.09
2023-11-07T15:27:58.859Z,100452.00
2023-11-07T15:30:25.909Z,100457.16
2023-11-07T15:32:52.660Z,100456.38
2023-11-07T15:35:19.797Z,100463.22
2023-11-07T15:37:48.247Z,100466.81
2023-11-07T15:40:21.208Z,100467.94
2023-11-07T15:42:49.408Z,100467.28
2023-11-07T15:45:17.965Z,100454.78
2023-11-07T15:47:47.144Z,100466.81
2023-11-07T15:50:16.111Z,100459.00
2023-11-07T15:52:55.658Z,100455.13
2023-11-07T15:55:31.096Z,100468.13
2023-11-07T15:57:57.900Z,100465.34
2023-11-07T16:00:27.610Z,100466.16
2023-11-07T16:02:54.647Z,100472.75
2023-11-07T16:05:23.248Z,100455.09
2023-11-07T16:07:49.951Z,100464.31
2023-11-07T16:10:16.756Z,100462.28
2023-11-07T16:12:46.692Z,100471.63
2023-11-07T16:15:15.815Z,100463.22
2023-11-07T16:17:48.648Z,100473.03
2023-11-07T16:20:22.187Z,100485.88
2023-11-07T16:22:49.247Z,100480.19
2023-11-07T16:25:17.178Z,100488.13
2023-11-07T16:27:44.354Z,100488.44
2023-11-07T16:30:12.025Z,100492.72
2023-11-07T16:32:38.764Z,100498.72
2023-11-07T16:35:06.233Z,100500.72
2023-11-07T16:37:35.377Z,100493.50
2023-11-07T16:40:02.552Z,100497.84
2023-11-07T16:42:29.094Z,100492.75
2023-11-07T16:44:55.714Z,100504.50
2023-11-07T16:47:22.840Z,100505.59
2023-11-07T16:49:51.154Z,100521.38
2023-11-07T16:52:18.006Z,100513.94
2023-11-07T16:54:44.801Z,100516.06
2023-11-07T16:57:11.493Z,100518.22
2023-11-07T16:59:45.192Z,100518.22
2023-11-07T17:02:14.185Z,100519.72
2023-11-07T17:04:43.506Z,100523.13
2023-11-07T17:07:11.099Z,100520.41
2023-11-07T17:09:37.786Z,100527.16
2023-11-07T17:12:05.100Z,100526.97
2023-11-07T17:14:31.755Z,100519.28
2023-11-07T17:16:59.478Z,100528.59
2023-11-07T17:19:26.561Z,100520.06
2023-11-07T17:21:54.545Z,100530.03
2023-11-07T17:24:26.179Z,100528.78
2023-11-07T17:26:53.767Z,100528.59
2023-11-07T17:29:22.181Z,100537.66
2023-11-07T17:31:49.445Z,100547.03
2023-11-07T17:34:16.259Z,100545.13
2023-11-07T17:36:44.375Z,100553.00
2023-11-07T17:39:16.434Z,100552.38
2023-11-07T17:41:46.688Z,100547.31
2023-11-07T17:44:15.481Z,100543.09
2023-11-07T17:46:43.457Z,100537.59
2023-11-07T17:49:11.604Z,100540.56
2023-11-07T17:51:42.641Z,100537.03
2023-11-07T17:54:10.080Z,100537.72
2023-11-07T17:56:37.034Z,100543.91
2023-11-07T17:59:04.459Z,100539.78
2023-11-07T18:01:31.066Z,100543.81
2023-11-07T18:03:57.642Z,100548.72
2023-11-07T18:06:27.126Z,100545.19
2023-11-07T18:08:53.840Z,100545.63
2023-11-07T18:11:22.670Z,100546.91
2023-11-07T18:13:49.384Z,100552.44
2023-11-07T18:16:15.895Z,100552.88
2023-11-07T18:18:57.356Z,100550.38
2023-11-07T18:21:26.779Z,100557.59
2023-11-07T18:23:53.529Z,100562.97
2023-11-07T18:26:22.379Z,100558.13
2023-11-07T18:28:50.099Z,100560.03
2023-11-07T18:31:19.391Z,100567.47
2023-11-07T18:33:50.340Z,100558.59
2023-11-07T18:36:18.439Z,100565.38
2023-11-07T18:38:45.583Z,100569.41
2023-11-07T18:41:12.571Z,100567.50
2023-11-07T18:43:39.405Z,100558.19
2023-11-07T18:46:07.297Z,100560.69
2023-11-07T18:48:35.007Z,100567.06
2023-11-07T18:51:01.955Z,100562.16
2023-11-07T18:53:42.923Z,100565.75
2023-11-07T18:56:12.240Z,100559.41
2023-11-07T18:58:38.702Z,100563.84
2023-11-07T19:01:05.185Z,100558.97
2023-11-07T19:03:31.709Z,100564.03
2023-11-07T19:05:58.450Z,100570.81
2023-11-07T19:08:24.969Z,100576.56
2023-11-07T19:10:52.931Z,100578.88
2023-11-07T19:13:19.490Z,100575.06
2023-11-07T19:15:46.018Z,100576.97
2023-11-07T19:18:14.783Z,100574.19
2023-11-07T19:20:42.961Z,100585.00
2023-11-07T19:23:10.297Z,100583.31
2023-11-07T19:25:37.259Z,100576.09
2023-11-07T19:28:04.429Z,100586.28
2023-11-07T19:30:31.108Z,100581.00
2023-11-07T19:32:57.696Z,100581.84
2023-11-07T19:35:25.719Z,100573.34
2023-11-07T19:37:54.643Z,100584.38
2023-11-07T19:40:24.071Z,100578.88
2023-11-07T19:42:52.932Z,100584.38
2023-11-07T19:45:19.757Z,100583.78
2023-11-07T19:47:46.528Z,100580.78
2023-11-07T19:50:14.123Z,100578.88
2023-11-07T19:52:42.105Z,100587.78
2023-11-07T19:55:09.096Z,100583.06
2023-11-07T19:57:38.093Z,100581.81
2023-11-07T20:00:13.681Z,100584.31
2023-11-07T20:02:44.146Z,100578.66
2023-11-07T20:05:11.311Z,100577.97
2023-11-07T20:07:47.008Z,100578.59
2023-11-07T20:10:21.586Z,100579.19
2023-11-07T20:12:48.334Z,100583.44
2023-11-07T20:15:14.984Z,100572.81
2023-11-07T20:17:41.656Z,100576.16
2023-11-07T20:20:12.388Z,100580.63
2023-11-07T20:22:38.977Z,100572.34
2023-11-07T20:25:10.172Z,100578.91
2023-11-07T20:27:37.736Z,100576.56
2023-11-07T20:30:10.921Z,100584.63
2023-11-07T20:32:44.832Z,100592.63
2023-11-07T20:35:11.560Z,100587.59
2023-11-07T20:37:38.095Z,100578.25
2023-11-07T20:40:05.348Z,100587.13
2023-11-07T20:42:31.988Z,100577.41
2023-11-07T20:45:07.735Z,100581.63
2023-11-07T20:47:38.190Z,100586.31
2023-11-07T20:50:06.830Z,100591.19
2023-11-07T20:52:36.583Z,100595.25
2023-11-07T20:55:03.485Z,100591.00
2023-11-07T20:57:29.925Z,100589.94
2023-11-07T20:59:56.927Z,100603.25
2023-11-07T21:02:24.250Z,100596.09
2023-11-07T21:04:51.466Z,100597.75
2023-11-07T21:07:17.979Z,100605.41
2023-11-07T21:09:44.454Z,100608.19
2023-11-07T21:12:11.045Z,100605.63
2023-11-07T21:14:39.134Z,100601.22
2023-11-07T21:17:05.864Z,100601.44
2023-11-07T21:19:32.328Z,100599.28
2023-11-07T21:22:00.989Z,100605.25
2023-11-07T21:24:28.145Z,100600.97
2023-11-07T21:26:55.121Z,100599.91
2023-11-07T21:29:21.974Z,100603.25
2023-11-07T21:31:52.883Z,100603.72
2023-11-07T21:36:47.674Z,100600.97
2023-11-07T21:39:16.471Z,100600.38
2023-11-07T21:41:43.087Z,100598.47
2023-11-07T21:44:09.575Z,100600.13
2023-11-07T21:46:36.208Z,100598.22
2023-11-07T21:49:02.912Z,100604.38
2023-11-07T21:51:29.614Z,100601.63
2023-11-07T21:53:56.178Z,100599.97
2023-11-07T21:56:23.552Z,100608.84
2023-11-07T21:58:50.189Z,100601.44
2023-11-07T22:01:18.174Z,100610.28
2023-11-07T22:03:47.147Z,100600.81
2023-11-07T22:08:40.774Z,100604.63
2023-11-07T22:11:09.802Z,100606.75
2023-11-07T22:13:39.433Z,100592.38
2023-11-07T22:16:06.150Z,100600.00
2023-11-07T22:18:33.048Z,100602.16
2023-11-07T22:21:00.403Z,100602.59
2023-11-07T22:23:28.377Z,100605.97
2023-11-07T22:25:56.397Z,100606.41
2023-11-07T22:28:22.890Z,100600.31
2023-11-07T22:30:49.482Z,100601.34
2023-11-07T22:33:16.105Z,100601.34
2023-11-07T22:35:43.373Z,100600.72
2023-11-07T22:38:09.978Z,100611.59
2023-11-07T22:40:36.544Z,100609.88
2023-11-07T22:43:03.106Z,100614.78
2023-11-07T22:45:29.762Z,100609.69
2023-11-07T22:47:56.348Z,100606.13
2023-11-07T22:50:24.707Z,100608.03
2023-11-07T22:52:51.237Z,100617.81
2023-11-07T22:55:17.789Z,100610.00
2023-11-07T22:57:44.708Z,100610.19
2023-11-07T23:00:16.538Z,100598.56
2023-11-07T23:02:43.188Z,100614.00
2023-11-07T23:05:09.809Z,100610.41
2023-11-07T23:07:36.273Z,100616.75
2023-11-07T23:10:03.365Z,100612.09
2023-11-07T23:12:29.907Z,100611.50
2023-11-07T23:14:56.490Z,100614.84
2023-11-07T23:17:22.985Z,100620.38
2023-11-07T23:19:49.585Z,100622.06
2023-11-07T23:22:16.153Z,100629.47
2023-11-07T23:24:43.651Z,100614.84
2023-11-07T23:27:10.447Z,100614.00
2023-11-07T23:29:39.098Z,100624.63
2023-11-07T23:32:07.284Z,100629.53
2023-11-07T23:34:33.863Z,100615.56
2023-11-07T23:37:00.492Z,100618.56
2023-11-07T23:39:27.054Z,100615.59
2023-11-07T23:41:53.642Z,100615.00
2023-11-07T23:44:20.205Z,100617.75
2023-11-07T23:46:46.819Z,100620.06
2023-11-07T23:49:13.384Z,100620.06
2023-11-07T23:51:40.187Z,100621.38
2023-11-07T23:54:06.972Z,100620.50
2023-11-07T23:56:33.927Z,100622.66
2023-11-07T23:59:01.025Z,100617.16
